Time;durP1;ratioP1;P1;durP2;ratioP2;P2;SDS_P1;SDS_P2;PMS_P1;PMS_P2;Temp;Humidity;BMP_temperature;BMP_pressure;BME280_temperature;BME280_humidity;BME280_pressure;Samples;Min_cycle;Max_cycle;Signal;HPM_P1;HPM_P2
2022/01/01 00:02:19;;;;;;;0.00;0.00;;;14.60;99.90;;;;;;6251512;22;20001;-69
2022/01/01 00:04:47;;;;;;;0.00;0.00;;;14.60;99.90;;;;;;6252069;22;20003;-69
2022/01/01 00:07:14;;;;;;;0.00;0.00;;;14.60;99.90;;;;;;6252367;22;20000;-68
2022/01/01 00:09:41;;;;;;;0.00;0.00;;;14.50;99.90;;;;;;6250743;23;20146;-69
2022/01/01 00:12:07;;;;;;;0.00;0.00;;;14.60;99.90;;;;;;6251666;22;20007;-68
2022/01/01 00:14:33;;;;;;;0.00;0.00;;;14.60;99.90;;;;;;6249398;22;20011;-70
2022/01/01 00:16:59;;;;;;;0.00;0.00;;;14.60;99.90;;;;;;6250112;22;20004;-69
2022/01/01 00:19:24;;;;;;;0.00;0.00;;;14.60;99.90;;;;;;6244420;23;20099;-68
2022/01/01 00:21:50;;;;;;;0.00;0.00;;;14.60;99.90;;;;;;6248824;23;20007;-69
2022/01/01 00:24:16;;;;;;;0.00;0.00;;;14.60;99.90;;;;;;6251463;23;20000;-70
2022/01/01 00:26:41;;;;;;;0.00;0.00;;;14.50;99.90;;;;;;6248402;23;20350;-69
2022/01/01 00:29:07;;;;;;;0.00;0.00;;;14.60;99.90;;;;;;6251146;23;20719;-69
2022/01/01 00:31:33;;;;;;;0.00;0.00;;;14.70;99.90;;;;;;6244989;23;20015;-70
2022/01/01 00:33:59;;;;;;;0.00;0.00;;;14.70;99.90;;;;;;6245603;23;20468;-68
2022/01/01 00:36:25;;;;;;;;;;;14.70;99.90;;;;;;6248109;23;20070;-68
2022/01/01 00:38:50;;;;;;;0.00;0.00;;;14.70;99.90;;;;;;6246224;22;19903;-67
2022/01/01 00:41:16;;;;;;;0.00;0.00;;;14.60;99.90;;;;;;6248787;23;20428;-69
2022/01/01 00:43:42;;;;;;;0.00;0.00;;;14.60;99.90;;;;;;6252362;22;20301;-69
2022/01/01 00:46:08;;;;;;;0.00;0.00;;;14.50;99.90;;;;;;6246432;22;20007;-69
2022/01/01 00:48:33;;;;;;;0.00;0.00;;;14.50;99.90;;;;;;6247979;23;19996;-73
2022/01/01 00:50:59;;;;;;;0.00;0.00;;;14.60;99.90;;;;;;6248053;23;20050;-69
2022/01/01 00:53:24;;;;;;;0.00;0.00;;;14.50;99.90;;;;;;6247278;22;20205;-70
2022/01/01 00:55:50;;;;;;;0.00;0.00;;;14.40;99.90;;;;;;6250277;23;20003;-69
2022/01/01 00:58:16;;;;;;;0.00;0.00;;;14.40;99.90;;;;;;6249735;23;20011;-69
2022/01/01 01:00:41;;;;;;;0.00;0.00;;;14.40;99.90;;;;;;6247777;23;20008;-68
2022/01/01 01:03:09;;;;;;;0.00;0.00;;;14.40;99.90;;;;;;6245956;23;20031;-69
2022/01/01 01:05:34;;;;;;;0.00;0.00;;;14.40;99.90;;;;;;6246226;22;20003;-71
2022/01/01 01:08:00;;;;;;;0.00;0.00;;;14.30;99.90;;;;;;6243397;23;20004;-70
2022/01/01 01:10:26;;;;;;;0.00;0.00;;;14.40;99.90;;;;;;6245864;23;20000;-70
2022/01/01 01:12:53;;;;;;;0.00;0.00;;;14.40;99.90;;;;;;6244535;23;20118;-70
2022/01/01 01:15:19;;;;;;;0.00;0.00;;;14.40;99.90;;;;;;6245242;22;20000;-67
2022/01/01 01:17:46;;;;;;;0.00;0.00;;;14.30;99.90;;;;;;6246002;23;20004;-68
2022/01/01 01:20:13;;;;;;;0.00;0.00;;;14.30;99.90;;;;;;6243966;22;20062;-69
2022/01/01 01:22:38;;;;;;;0.00;0.00;;;14.30;99.90;;;;;;6245832;22;20054;-69
2022/01/01 01:25:04;;;;;;;0.00;0.00;;;14.30;99.90;;;;;;6243902;23;20428;-69
2022/01/01 01:27:31;;;;;;;;;;;14.30;99.90;;;;;;6247040;23;20000;-68
2022/01/01 01:29:58;;;;;;;0.00;0.00;;;14.30;99.90;;;;;;6254000;22;19934;-69
2022/01/01 01:32:24;;;;;;;0.00;0.00;;;14.30;99.90;;;;;;6246557;23;20053;-68
2022/01/01 01:34:50;;;;;;;0.00;0.00;;;14.30;99.90;;;;;;6249074;23;19997;-69
2022/01/01 01:37:16;;;;;;;0.00;0.00;;;14.30;99.90;;;;;;6246923;23;20083;-69
2022/01/01 01:39:41;;;;;;;0.00;0.00;;;14.30;99.90;;;;;;6248142;23;20014;-68
2022/01/01 01:42:07;;;;;;;0.00;0.00;;;14.30;99.90;;;;;;6250923;23;20000;-68
2022/01/01 01:44:41;;;;;;;0.00;0.00;;;14.30;99.90;;;;;;6250085;22;20010;-67
2022/01/01 01:47:15;;;;;;;0.00;0.00;;;14.30;99.90;;;;;;6258175;22;20094;-70
2022/01/01 01:49:41;;;;;;;0.00;0.00;;;14.30;99.90;;;;;;6257824;22;20016;-68
2022/01/01 01:52:11;;;;;;;0.00;0.00;;;14.30;99.90;;;;;;6257545;22;20058;-68
2022/01/01 01:54:38;;;;;;;0.00;0.00;;;14.30;99.90;;;;;;6258690;23;20011;-68
2022/01/01 01:57:05;;;;;;;0.00;0.00;;;14.30;99.90;;;;;;6263421;22;20008;-68
2022/01/01 01:59:30;;;;;;;0.00;0.00;;;14.30;99.90;;;;;;6260294;22;20030;-68
2022/01/01 02:01:56;;;;;;;0.00;0.00;;;14.30;99.90;;;;;;6267395;23;20000;-70
2022/01/01 02:04:22;;;;;;;0.00;0.00;;;14.20;99.90;;;;;;6267356;23;19997;-68
2022/01/01 02:06:48;;;;;;;0.00;0.00;;;14.20;99.90;;;;;;6263499;23;19996;-68
2022/01/01 02:09:15;;;;;;;0.00;0.00;;;14.10;99.90;;;;;;6261161;22;20360;-69
2022/01/01 02:11:41;;;;;;;;;;;14.10;99.90;;;;;;6261399;23;20308;-69
2022/01/01 02:14:17;;;;;;;0.00;0.00;;;14.10;99.90;;;;;;6259082;22;19900;-68
2022/01/01 02:19:28;;;;;;;0.00;0.00;;;14.10;99.90;;;;;;6260428;22;20039;-68
2022/01/01 02:21:57;;;;;;;0.00;0.00;;;14.10;99.90;;;;;;6257300;22;20000;-68
2022/01/01 02:24:24;;;;;;;0.00;0.00;;;14.10;99.90;;;;;;6258068;22;20086;-68
2022/01/01 02:26:50;;;;;;;0.00;0.00;;;14.10;99.90;;;;;;6257694;23;20004;-68
2022/01/01 02:29:16;;;;;;;0.00;0.00;;;14.00;99.90;;;;;;6260651;22;20031;-69
2022/01/01 02:31:41;;;;;;;0.00;0.00;;;14.00;99.90;;;;;;6259678;23;20011;-68
2022/01/01 02:34:09;;;;;;;0.00;0.00;;;14.00;99.90;;;;;;6256872;22;20019;-69
2022/01/01 02:36:37;;;;;;;0.00;0.00;;;14.00;99.90;;;;;;6259903;22;20008;-68
2022/01/01 02:39:11;;;;;;;0.00;0.00;;;14.00;99.90;;;;;;6260512;22;20087;-69
2022/01/01 02:41:37;;;;;;;0.00;0.00;;;13.90;99.90;;;;;;6264271;22;20026;-69
2022/01/01 02:44:05;;;;;;;0.00;0.00;;;13.80;99.90;;;;;;6264169;22;20081;-69
2022/01/01 02:46:32;;;;;;;0.00;0.00;;;13.80;99.90;;;;;;6261982;23;20028;-67
2022/01/01 02:48:58;;;;;;;0.00;0.00;;;13.80;99.90;;;;;;6260162;22;20079;-68
2022/01/01 02:51:24;;;;;;;0.00;0.00;;;13.80;99.90;;;;;;6262233;22;19996;-69
2022/01/01 02:53:49;;;;;;;0.00;0.00;;;13.80;99.90;;;;;;6261250;23;20000;-68
2022/01/01 02:56:15;;;;;;;0.00;0.00;;;13.80;99.90;;;;;;6261207;23;20000;-68
2022/01/01 02:58:42;;;;;;;0.00;0.00;;;13.80;99.90;;;;;;6261020;23;20059;-68
2022/01/01 03:01:09;;;;;;;0.00;0.00;;;13.80;99.90;;;;;;6260828;22;20003;-67
2022/01/01 03:03:34;;;;;;;0.00;0.00;;;13.80;99.90;;;;;;6260589;22;19996;-69
2022/01/01 03:06:00;;;;;;;0.00;0.00;;;13.80;99.90;;;;;;6260232;23;19996;-68
2022/01/01 03:08:26;;;;;;;0.00;0.00;;;13.80;99.90;;;;;;6262025;23;20000;-68
2022/01/01 03:10:51;;;;;;;0.00;0.00;;;13.90;99.90;;;;;;6265762;23;19992;-68
2022/01/01 03:13:18;;;;;;;0.00;0.00;;;13.90;99.90;;;;;;6263675;23;20000;-68
2022/01/01 03:15:44;;;;;;;0.00;0.00;;;13.90;99.90;;;;;;6263880;23;20055;-67
2022/01/01 03:18:10;;;;;;;0.00;0.00;;;13.90;99.90;;;;;;6264399;23;20000;-68
2022/01/01 03:20:36;;;;;;;0.00;0.00;;;13.90;99.90;;;;;;6261832;22;20004;-69
2022/01/01 03:23:03;;;;;;;0.00;0.00;;;13.90;99.90;;;;;;6261995;22;20010;-69
2022/01/01 03:25:29;;;;;;;0.00;0.00;;;13.90;99.90;;;;;;6262507;22;19996;-68
2022/01/01 03:27:55;;;;;;;0.00;0.00;;;13.90;99.90;;;;;;6260684;22;20064;-69
2022/01/01 03:30:21;;;;;;;0.00;0.00;;;13.90;99.90;;;;;;6261100;23;20109;-69
2022/01/01 03:32:47;;;;;;;0.00;0.00;;;13.90;99.90;;;;;;6261597;23;20008;-68
2022/01/01 03:35:13;;;;;;;0.00;0.00;;;13.90;99.90;;;;;;6261534;23;20000;-67
2022/01/01 03:37:39;;;;;;;0.00;0.00;;;13.90;99.90;;;;;;6261374;22;20048;-68
2022/01/01 03:40:05;;;;;;;;;;;13.90;99.90;;;;;;6260500;22;20000;-68
2022/01/01 03:42:31;;;;;;;0.00;0.00;;;13.90;99.90;;;;;;6261062;22;20339;-67
2022/01/01 03:44:56;;;;;;;0.00;0.00;;;13.90;99.90;;;;;;6262413;23;20000;-69
2022/01/01 03:47:22;;;;;;;0.00;0.00;;;13.90;99.90;;;;;;6261065;23;20000;-68
2022/01/01 03:49:49;;;;;;;0.00;0.00;;;13.90;99.90;;;;;;6261274;23;20011;-68
2022/01/01 03:52:15;;;;;;;0.00;0.00;;;13.90;99.90;;;;;;6261488;23;19996;-68
2022/01/01 03:54:41;;;;;;;0.00;0.00;;;13.90;99.90;;;;;;6262356;22;19992;-68
2022/01/01 03:57:07;;;;;;;0.00;0.00;;;13.90;99.90;;;;;;6261828;22;20031;-68
2022/01/01 03:59:34;;;;;;;0.00;0.00;;;13.90;99.90;;;;;;6260253;22;20012;-71
2022/01/01 04:02:00;;;;;;;0.00;0.00;;;13.90;99.90;;;;;;6259550;23;20026;-68
2022/01/01 04:04:26;;;;;;;0.00;0.00;;;13.90;99.90;;;;;;6261723;23;20063;-68
2022/01/01 04:06:52;;;;;;;0.00;0.00;;;13.90;99.90;;;;;;6261153;22;20004;-67
2022/01/01 04:09:18;;;;;;;0.00;0.00;;;13.90;99.90;;;;;;6261787;22;20007;-69
2022/01/01 04:11:44;;;;;;;0.00;0.00;;;13.90;99.90;;;;;;6262818;22;19993;-67
2022/01/01 04:14:15;;;;;;;0.00;0.00;;;13.90;99.90;;;;;;6261248;23;20003;-68
2022/01/01 04:16:42;;;;;;;0.00;0.00;;;13.90;99.90;;;;;;6261735;22;20016;-68
2022/01/01 04:19:08;;;;;;;0.00;0.00;;;13.90;99.90;;;;;;6258749;23;20008;-67
2022/01/01 04:21:34;;;;;;;0.00;0.00;;;13.90;99.90;;;;;;6261726;22;20000;-68
2022/01/01 04:24:00;;;;;;;0.00;0.00;;;13.90;99.90;;;;;;6260060;22;19999;-69
2022/01/01 04:26:26;;;;;;;0.00;0.00;;;13.90;99.90;;;;;;6258920;22;19997;-69
2022/01/01 04:28:52;;;;;;;0.00;0.00;;;13.90;99.90;;;;;;6259433;23;20000;-68
2022/01/01 04:31:17;;;;;;;0.00;0.00;;;13.90;99.90;;;;;;6260151;23;20008;-67
2022/01/01 04:33:44;;;;;;;0.00;0.00;;;13.90;99.90;;;;;;6259086;23;20002;-68
2022/01/01 04:36:10;;;;;;;0.00;0.00;;;14.00;99.90;;;;;;6259779;23;20000;-69
2022/01/01 04:38:38;;;;;;;0.00;0.00;;;14.00;99.90;;;;;;6259952;23;20000;-69
2022/01/01 04:41:09;;;;;;;0.00;0.00;;;14.00;99.90;;;;;;6257923;22;20000;-67
2022/01/01 04:43:35;;;;;;;0.00;0.00;;;14.00;99.90;;;;;;6258265;22;20063;-69
2022/01/01 04:46:01;;;;;;;0.00;0.00;;;14.10;99.90;;;;;;6257157;23;20066;-69
2022/01/01 04:48:27;;;;;;;;;;;14.10;99.90;;;;;;6261850;22;20000;-68
2022/01/01 04:50:53;;;;;;;0.00;0.00;;;14.00;99.90;;;;;;6260780;22;19900;-68
2022/01/01 04:53:19;;;;;;;0.00;0.00;;;14.00;99.90;;;;;;6258983;22;20026;-68
2022/01/01 04:55:45;;;;;;;;;;;14.00;99.90;;;;;;6262983;22;19996;-68
2022/01/01 04:58:11;;;;;;;0.00;0.00;;;14.10;99.90;;;;;;6259062;22;19926;-68
2022/01/01 05:00:37;;;;;;;0.00;0.00;;;14.00;99.90;;;;;;6256895;23;20004;-69
2022/01/01 05:03:02;;;;;;;0.00;0.00;;;14.00;99.90;;;;;;6257517;22;20000;-69
2022/01/01 05:05:28;;;;;;;0.00;0.00;;;14.00;99.90;;;;;;6258725;23;19996;-68
2022/01/01 05:07:54;;;;;;;0.00;0.00;;;14.00;99.90;;;;;;6258438;23;20032;-68
2022/01/01 05:10:20;;;;;;;0.00;0.00;;;14.00;99.90;;;;;;6261108;23;20015;-69
2022/01/01 05:12:45;;;;;;;0.00;0.00;;;14.10;99.90;;;;;;6260696;23;20015;-68
2022/01/01 05:15:11;;;;;;;0.00;0.00;;;14.00;99.90;;;;;;6260932;23;20012;-68
2022/01/01 05:17:37;;;;;;;0.00;0.00;;;14.00;99.90;;;;;;6259289;22;20010;-68
2022/01/01 05:20:04;;;;;;;0.00;0.00;;;14.00;99.90;;;;;;6258324;23;20008;-68
2022/01/01 05:22:30;;;;;;;0.00;0.00;;;14.00;99.90;;;;;;6259672;22;20024;-68
2022/01/01 05:24:59;;;;;;;0.00;0.00;;;14.00;99.90;;;;;;6260475;22;20043;-68
2022/01/01 05:27:27;;;;;;;0.00;0.00;;;13.90;99.90;;;;;;6259420;23;20424;-67
2022/01/01 05:29:53;;;;;;;0.00;0.00;;;13.90;99.90;;;;;;6260013;22;20012;-68
2022/01/01 05:32:19;;;;;;;;;;;13.90;99.90;;;;;;6260226;22;20067;-70
2022/01/01 05:34:44;;;;;;;0.00;0.00;;;13.80;99.90;;;;;;6260771;23;19926;-68
2022/01/01 05:37:10;;;;;;;0.00;0.00;;;13.80;99.90;;;;;;6259372;22;20011;-69
2022/01/01 05:39:36;;;;;;;0.00;0.00;;;13.80;99.90;;;;;;6259678;23;20008;-68
2022/01/01 05:42:01;;;;;;;0.00;0.00;;;13.80;99.90;;;;;;6260936;22;19996;-68
2022/01/01 05:44:27;;;;;;;0.00;0.00;;;13.80;99.90;;;;;;6260309;23;20004;-67
2022/01/01 05:46:54;;;;;;;0.00;0.00;;;13.80;99.90;;;;;;6259489;23;20000;-68
2022/01/01 05:49:20;;;;;;;0.00;0.00;;;13.80;99.90;;;;;;6260188;22;20079;-69
2022/01/01 05:51:46;;;;;;;0.00;0.00;;;13.70;99.90;;;;;;6258878;23;20012;-68
2022/01/01 05:54:12;;;;;;;0.00;0.00;;;13.80;99.90;;;;;;6259914;22;20001;-69
2022/01/01 05:56:38;;;;;;;;;;;13.70;99.90;;;;;;6260703;22;19996;-69
2022/01/01 05:59:03;;;;;;;0.00;0.00;;;13.60;99.90;;;;;;6258564;23;19934;-69
2022/01/01 06:01:29;;;;;;;0.00;0.00;;;13.70;99.90;;;;;;6260286;22;19996;-68
2022/01/01 06:03:55;;;;;;;0.00;0.00;;;13.70;99.90;;;;;;6262215;22;19996;-69
2022/01/01 06:06:20;;;;;;;0.00;0.00;;;13.80;99.90;;;;;;6260934;23;20007;-67
2022/01/01 06:08:46;;;;;;;0.00;0.00;;;13.80;99.90;;;;;;6265356;22;20007;-69
2022/01/01 06:11:12;;;;;;;0.00;0.00;;;13.80;99.90;;;;;;6266730;23;20023;-68
2022/01/01 06:13:37;;;;;;;0.00;0.00;;;13.80;99.90;;;;;;6265880;23;19984;-68
2022/01/01 06:16:03;;;;;;;0.00;0.00;;;13.70;99.90;;;;;;6264433;23;19992;-69
2022/01/01 06:18:29;;;;;;;0.00;0.00;;;13.80;99.90;;;;;;6263486;22;20015;-68
2022/01/01 06:20:56;;;;;;;0.00;0.00;;;13.80;99.90;;;;;;6260365;23;19997;-68
2022/01/01 06:23:22;;;;;;;0.00;0.00;;;13.80;99.90;;;;;;6259434;23;20011;-68
2022/01/01 06:25:48;;;;;;;0.00;0.00;;;13.80;99.90;;;;;;6259703;23;19992;-69
2022/01/01 06:28:14;;;;;;;0.00;0.00;;;13.80;99.90;;;;;;6260532;22;20034;-68
2022/01/01 06:30:39;;;;;;;0.00;0.00;;;13.80;99.90;;;;;;6259898;23;20086;-69
2022/01/01 06:33:17;;;;;;;0.00;0.00;;;13.90;99.90;;;;;;6262596;23;20058;-68
2022/01/01 06:35:46;;;;;;;0.00;0.00;;;13.90;99.90;;;;;;6263260;22;20004;-68
2022/01/01 06:38:13;;;;;;;0.00;0.00;;;13.90;99.90;;;;;;6263646;22;20011;-67
2022/01/01 06:40:40;;;;;;;0.00;0.00;;;13.90;99.90;;;;;;6261779;22;20008;-68
2022/01/01 06:43:07;;;;;;;0.00;0.00;;;13.90;99.90;;;;;;6263415;22;20063;-68
2022/01/01 06:45:34;;;;;;;0.00;0.00;;;14.00;99.90;;;;;;6261993;22;19996;-69
2022/01/01 06:48:00;;;;;;;0.00;0.00;;;14.00;99.90;;;;;;6262979;22;20004;-67
2022/01/01 06:50:25;;;;;;;0.00;0.00;;;14.00;99.90;;;;;;6264172;22;20473;-68
2022/01/01 06:52:51;;;;;;;0.00;0.00;;;14.10;99.90;;;;;;6262596;23;20027;-68
2022/01/01 06:55:17;;;;;;;0.00;0.00;;;14.10;99.90;;;;;;6262338;23;20000;-68
2022/01/01 06:57:43;;;;;;;0.00;0.00;;;14.10;99.90;;;;;;6262877;23;20008;-68
2022/01/01 07:00:10;;;;;;;0.00;0.00;;;14.10;99.90;;;;;;6261464;22;20004;-67
2022/01/01 07:02:47;;;;;;;0.00;0.00;;;14.10;99.90;;;;;;6264001;22;19996;-69
2022/01/01 07:05:13;;;;;;;;;;;14.10;99.90;;;;;;6264850;22;19992;-67
2022/01/01 07:07:39;;;;;;;0.00;0.00;;;14.20;99.90;;;;;;6262935;22;19910;-69
2022/01/01 07:10:09;;;;;;;;;;;14.20;99.90;;;;;;6262435;22;20023;-68
2022/01/01 07:12:36;;;;;;;0.00;0.00;;;14.10;99.90;;;;;;6262182;22;19904;-68
2022/01/01 07:15:03;;;;;;;0.00;0.00;;;14.10;99.90;;;;;;6263196;22;19996;-68
2022/01/01 07:17:29;;;;;;;0.00;0.00;;;14.10;99.90;;;;;;6264168;22;20000;-68
2022/01/01 07:19:55;;;;;;;0.00;0.00;;;14.30;99.90;;;;;;6261674;22;20187;-68
2022/01/01 07:22:20;;;;;;;0.00;0.00;;;14.20;99.90;;;;;;6263596;23;20040;-68
2022/01/01 07:24:46;;;;;;;0.00;0.00;;;14.30;99.90;;;;;;6263755;23;20019;-68
2022/01/01 07:27:12;;;;;;;0.00;0.00;;;14.40;99.90;;;;;;6261826;23;20311;-68
2022/01/01 07:29:39;;;;;;;0.00;0.00;;;14.40;99.90;;;;;;6261399;22;19992;-68
2022/01/01 07:32:05;;;;;;;0.00;0.00;;;14.30;99.90;;;;;;6261307;22;20011;-68
2022/01/01 07:34:31;;;;;;;0.00;0.00;;;14.40;99.90;;;;;;6259656;22;20003;-67
2022/01/01 07:36:57;;;;;;;0.00;0.00;;;14.50;99.90;;;;;;6260497;22;20052;-68
2022/01/01 07:39:22;;;;;;;0.00;0.00;;;14.60;99.90;;;;;;6260071;22;20046;-69
2022/01/01 07:41:48;;;;;;;0.00;0.00;;;14.50;99.90;;;;;;6262154;22;20033;-69
2022/01/01 07:44:14;;;;;;;0.00;0.00;;;14.50;99.90;;;;;;6264001;23;19996;-68
2022/01/01 07:46:40;;;;;;;0.00;0.00;;;14.60;99.90;;;;;;6260859;23;20023;-68
2022/01/01 07:49:06;;;;;;;0.00;0.00;;;14.60;99.90;;;;;;6262977;23;20360;-69
2022/01/01 07:51:32;;;;;;;0.00;0.00;;;14.60;99.90;;;;;;6263299;23;20004;-68
2022/01/01 07:53:58;;;;;;;0.00;0.00;;;14.60;99.90;;;;;;6260167;23;20095;-68
2022/01/01 07:56:24;;;;;;;;;;;14.70;99.90;;;;;;6264312;22;20415;-68
2022/01/01 07:58:50;;;;;;;0.00;0.00;;;14.70;99.90;;;;;;6262514;23;19904;-68
2022/01/01 08:01:15;;;;;;;0.00;0.00;;;14.60;99.90;;;;;;6260526;23;20026;-68
2022/01/01 08:03:41;;;;;;;0.00;0.00;;;14.60;99.90;;;;;;6261342;23;20007;-69
2022/01/01 08:06:07;;;;;;;0.00;0.00;;;14.60;99.90;;;;;;6259700;23;20773;-68
2022/01/01 08:08:32;;;;;;;0.00;0.00;;;14.60;99.90;;;;;;6259703;23;20060;-68
2022/01/01 08:10:59;;;;;;;0.00;0.00;;;14.60;99.90;;;;;;6260785;23;19996;-68
2022/01/01 08:13:25;;;;;;;;;;;14.70;99.90;;;;;;6259320;23;20011;-67
2022/01/01 08:15:55;;;;;;;0.00;0.00;;;14.80;99.90;;;;;;6259254;22;20043;-70
2022/01/01 08:18:21;;;;;;;0.00;0.00;;;14.80;99.90;;;;;;6251263;22;20492;-67
2022/01/01 08:20:47;;;;;;;0.00;0.00;;;14.70;99.90;;;;;;6228086;23;20038;-68
2022/01/01 08:23:14;;;;;;;0.00;0.00;;;14.80;99.90;;;;;;6230090;23;20000;-68
2022/01/01 08:25:40;;;;;;;0.00;0.00;;;14.80;99.90;;;;;;6229842;23;20060;-68
2022/01/01 08:28:07;;;;;;;0.00;0.00;;;14.80;99.90;;;;;;6230573;23;20007;-68
2022/01/01 08:30:34;;;;;;;0.00;0.00;;;14.80;99.90;;;;;;6229107;23;20023;-67
2022/01/01 08:33:01;;;;;;;0.00;0.00;;;14.80;99.90;;;;;;6232216;23;20001;-69
2022/01/01 08:35:32;;;;;;;0.00;0.00;;;14.80;99.90;;;;;;6231928;23;20008;-68
2022/01/01 08:37:59;;;;;;;0.00;0.00;;;14.80;99.90;;;;;;6234592;23;20031;-70
2022/01/01 08:40:26;;;;;;;0.00;0.00;;;14.80;99.90;;;;;;6231174;23;20197;-67
2022/01/01 08:42:52;;;;;;;0.00;0.00;;;14.80;99.90;;;;;;6232676;23;20001;-67
2022/01/01 08:45:19;;;;;;;0.00;0.00;;;14.80;99.90;;;;;;6232877;23;19997;-68
2022/01/01 08:47:44;;;;;;;0.00;0.00;;;14.80;99.90;;;;;;6232249;23;20047;-67
2022/01/01 08:50:10;;;;;;;0.00;0.00;;;14.80;99.90;;;;;;6233453;23;20031;-68
2022/01/01 08:52:36;;;;;;;0.00;0.00;;;14.80;99.90;;;;;;6233673;23;19993;-68
2022/01/01 08:55:03;;;;;;;0.00;0.00;;;14.80;99.90;;;;;;6233533;23;20008;-68
2022/01/01 08:57:32;;;;;;;0.00;0.00;;;14.70;99.90;;;;;;6234957;23;20015;-68
2022/01/01 08:59:59;;;;;;;0.00;0.00;;;14.80;99.90;;;;;;6233528;23;20000;-68
2022/01/01 09:02:25;;;;;;;0.00;0.00;;;14.80;99.90;;;;;;6234488;23;20011;-68
2022/01/01 09:04:51;;;;;;;0.00;0.00;;;14.90;99.90;;;;;;6233588;23;20271;-68
2022/01/01 09:07:18;;;;;;;0.00;0.00;;;14.90;99.90;;;;;;6232906;23;20065;-68
2022/01/01 09:09:44;;;;;;;0.00;0.00;;;14.90;99.90;;;;;;6234839;23;20016;-68
2022/01/01 09:12:11;;;;;;;0.00;0.00;;;14.90;99.90;;;;;;6235501;23;19993;-69
2022/01/01 09:14:37;;;;;;;;;;;14.80;99.90;;;;;;6235278;23;20053;-69
2022/01/01 09:17:06;;;;;;;0.00;0.00;;;14.90;99.90;;;;;;6236413;23;20348;-70
2022/01/01 09:19:32;;;;;;;0.00;0.00;;;15.00;99.90;;;;;;6236482;23;20004;-67
2022/01/01 09:21:57;;;;;;;0.00;0.00;;;15.00;99.90;;;;;;6234410;23;20011;-69
2022/01/01 09:24:23;;;;;;;0.00;0.00;;;15.00;99.90;;;;;;6234022;23;20034;-68
2022/01/01 09:26:49;;;;;;;0.00;0.00;;;15.00;99.90;;;;;;6231769;23;20020;-69
2022/01/01 09:29:15;;;;;;;0.00;0.00;;;15.00;99.90;;;;;;6232878;23;20087;-68
2022/01/01 09:31:42;;;;;;;0.00;0.00;;;15.00;99.90;;;;;;6233040;23;20039;-68
2022/01/01 09:34:08;;;;;;;0.00;0.00;;;14.90;99.90;;;;;;6231387;23;20001;-68
2022/01/01 09:36:34;;;;;;;0.00;0.00;;;14.90;99.90;;;;;;6228177;23;19997;-68
2022/01/01 09:39:00;;;;;;;0.00;0.00;;;14.80;99.90;;;;;;6229100;23;20005;-69
2022/01/01 09:41:26;;;;;;;0.00;0.00;;;14.90;99.90;;;;;;6232029;23;20053;-69
2022/01/01 09:43:55;;;;;;;0.00;0.00;;;14.80;99.90;;;;;;6229664;23;19993;-69
2022/01/01 09:46:22;;;;;;;0.00;0.00;;;14.70;99.90;;;;;;6227109;23;20008;-68
2022/01/01 09:48:49;;;;;;;0.00;0.00;;;14.60;99.90;;;;;;6231246;23;20001;-67
2022/01/01 09:51:15;;;;;;;0.00;0.00;;;14.50;99.90;;;;;;6232541;23;20009;-68
2022/01/01 09:53:41;;;;;;;0.00;0.00;;;14.50;99.90;;;;;;6230127;23;20055;-68
2022/01/01 09:56:07;;;;;;;0.00;0.00;;;14.40;99.90;;;;;;6228681;23;20007;-68
2022/01/01 09:58:35;;;;;;;0.00;0.00;;;14.30;99.90;;;;;;6226569;23;20000;-69
2022/01/01 10:01:03;;;;;;;0.00;0.00;;;14.10;99.90;;;;;;6226933;23;20001;-67
2022/01/01 10:03:28;;;;;;;0.00;0.00;;;14.00;99.90;;;;;;6229513;23;20076;-69
2022/01/01 10:06:02;;;;;;;0.00;0.00;;;13.90;99.90;;;;;;6225491;23;20000;-68
2022/01/01 10:08:28;;;;;;;0.00;0.00;;;13.90;99.90;;;;;;6228034;23;19992;-68
2022/01/01 10:10:55;;;;;;;0.00;0.00;;;13.80;99.90;;;;;;6229109;23;20072;-68
2022/01/01 10:13:29;;;;;;;0.00;0.00;;;13.70;99.90;;;;;;6227874;23;20468;-68
2022/01/01 10:15:56;;;;;;;0.00;0.00;;;13.70;99.90;;;;;;6225158;23;20000;-68
2022/01/01 10:18:26;;;;;;;0.00;0.00;;;13.60;99.90;;;;;;6225308;23;20020;-68
2022/01/01 10:21:00;;;;;;;0.00;0.00;;;13.60;99.90;;;;;;6225031;23;20004;-69
2022/01/01 10:23:28;;;;;;;0.00;0.00;;;13.70;99.90;;;;;;6223964;23;20064;-68
2022/01/01 10:29:26;;;;;;;0.00;0.00;;;13.70;99.90;;;;;;6229646;23;20050;-67
2022/01/01 10:31:59;;;;;;;0.00;0.00;;;13.70;99.90;;;;;;6219018;23;20028;-68
2022/01/01 10:34:56;;;;;;;0.00;0.00;;;13.80;99.90;;;;;;6227742;23;20072;-68
2022/01/01 10:37:28;;;;;;;0.00;0.00;;;13.70;99.90;;;;;;6201520;23;20056;-69
2022/01/01 10:39:54;;;;;;;0.00;0.00;;;13.80;99.90;;;;;;6229961;23;20012;-70
2022/01/01 10:42:21;;;;;;;0.00;0.00;;;13.90;99.90;;;;;;6232247;23;20004;-73
2022/01/01 10:44:47;;;;;;;;;;;13.80;99.90;;;;;;6228216;23;20005;-72
2022/01/01 10:47:20;;;;;;;0.00;0.00;;;13.80;99.90;;;;;;6227017;23;19907;-68
2022/01/01 10:52:24;;;;;;;0.00;0.00;;;13.90;99.90;;;;;;6228923;23;20019;-68
2022/01/01 10:55:06;;;;;;;0.00;0.00;;;13.90;99.90;;;;;;6225871;23;20015;-68
2022/01/01 10:57:52;;;;;;;0.00;0.00;;;14.00;99.90;;;;;;6226736;23;20031;-68
2022/01/01 11:00:23;;;;;;;0.00;0.00;;;14.00;99.90;;;;;;6220991;23;20518;-68
2022/01/01 11:02:56;;;;;;;0.00;0.00;;;14.10;99.90;;;;;;6223310;23;20543;-68
2022/01/01 11:05:33;;;;;;;0.00;0.00;;;14.00;99.90;;;;;;6225204;23;20007;-69
2022/01/01 11:08:00;;;;;;;0.00;0.00;;;14.10;99.90;;;;;;6218568;23;20031;-74
2022/01/01 11:10:27;;;;;;;0.00;0.00;;;14.10;99.90;;;;;;6219520;23;20325;-69
2022/01/01 11:12:54;;;;;;;0.00;0.00;;;14.10;99.90;;;;;;6220208;23;20048;-70
2022/01/01 11:15:20;;;;;;;0.00;0.00;;;14.20;99.90;;;;;;6224335;23;20052;-70
2022/01/01 11:17:48;;;;;;;0.00;0.00;;;14.30;99.90;;;;;;6222913;23;20381;-70
2022/01/01 11:20:15;;;;;;;0.00;0.00;;;14.30;99.90;;;;;;6215466;23;20401;-67
2022/01/01 11:22:42;;;;;;;0.00;0.00;;;14.30;99.90;;;;;;6213050;23;20062;-68
2022/01/01 11:25:09;;;;;;;0.00;0.00;;;14.30;99.90;;;;;;6213829;23;20460;-68
2022/01/01 11:27:35;;;;;;;0.00;0.00;;;14.40;99.90;;;;;;6210169;23;20087;-69
2022/01/01 11:30:04;;;;;;;0.00;0.00;;;14.50;99.90;;;;;;6212447;23;20036;-70
2022/01/01 11:32:52;;;;;;;0.00;0.00;;;14.40;99.90;;;;;;6213301;23;20392;-69
2022/01/01 11:35:21;;;;;;;0.00;0.00;;;14.40;99.90;;;;;;6214071;23;20027;-69
2022/01/01 11:38:06;;;;;;;0.00;0.00;;;14.40;99.90;;;;;;6213402;23;20008;-72
2022/01/01 11:40:53;;;;;;;0.00;0.00;;;14.40;99.90;;;;;;6211716;23;20004;-69
2022/01/01 11:43:32;;;;;;;0.00;0.00;;;14.50;99.90;;;;;;6218357;23;20000;-68
2022/01/01 11:45:59;;;;;;;0.00;0.00;;;14.50;99.90;;;;;;6215722;23;20027;-69
2022/01/01 11:48:32;;;;;;;0.00;0.00;;;14.50;99.90;;;;;;6215937;23;20080;-68
2022/01/01 11:51:20;;;;;;;0.00;0.00;;;14.50;99.90;;;;;;6217806;23;20011;-68
2022/01/01 11:54:06;;;;;;;0.00;0.00;;;14.60;99.90;;;;;;6214180;23;19997;-69
2022/01/01 11:56:59;;;;;;;0.00;0.00;;;14.60;99.90;;;;;;6215470;23;20004;-70
2022/01/01 11:59:29;;;;;;;0.00;0.00;;;14.70;99.90;;;;;;6207524;23;20012;-69
2022/01/01 12:02:01;;;;;;;0.00;0.00;;;14.70;99.90;;;;;;6214051;23;20035;-69
2022/01/01 12:04:32;;;;;;;0.00;0.00;;;14.80;99.90;;;;;;6217895;23;20069;-69
2022/01/01 12:07:13;;;;;;;0.00;0.00;;;14.80;99.90;;;;;;6218805;23;20059;-71
2022/01/01 12:09:47;;;;;;;0.00;0.00;;;14.90;99.90;;;;;;6216358;23;20004;-69
2022/01/01 12:12:14;;;;;;;0.00;0.00;;;15.00;99.90;;;;;;6215984;23;20004;-70
2022/01/01 12:14:41;;;;;;;0.00;0.00;;;15.00;99.90;;;;;;6215439;23;20337;-68
2022/01/01 12:17:07;;;;;;;0.00;0.00;;;15.00;99.90;;;;;;6218175;23;20091;-69
2022/01/01 12:19:36;;;;;;;0.00;0.00;;;15.00;99.90;;;;;;6221783;23;20005;-68
2022/01/01 12:22:08;;;;;;;0.00;0.00;;;15.00;99.90;;;;;;6224240;23;20000;-69
2022/01/01 12:24:37;;;;;;;0.00;0.00;;;15.10;99.90;;;;;;6217758;23;20011;-71
2022/01/01 12:27:11;;;;;;;0.00;0.00;;;15.20;99.90;;;;;;6222003;23;20000;-68
2022/01/01 12:29:37;;;;;;;0.00;0.00;;;15.10;99.90;;;;;;6222574;23;20001;-69
2022/01/01 12:32:05;;;;;;;0.00;0.00;;;15.10;99.90;;;;;;6218416;23;20011;-69
2022/01/01 12:34:32;;;;;;;0.00;0.00;;;15.10;99.90;;;;;;6215690;23;20160;-68
2022/01/01 12:36:58;;;;;;;0.00;0.00;;;15.20;99.90;;;;;;6213374;23;20005;-70
2022/01/01 12:39:24;;;;;;;0.00;0.00;;;15.20;99.90;;;;;;6212858;23;20066;-69
2022/01/01 12:41:52;;;;;;;0.00;0.00;;;15.10;99.90;;;;;;6216207;23;20008;-70
2022/01/01 12:44:20;;;;;;;0.00;0.00;;;15.10;99.90;;;;;;6218052;23;20418;-71
2022/01/01 12:46:52;;;;;;;0.00;0.00;;;15.00;99.90;;;;;;6217062;23;20000;-70
2022/01/01 12:49:18;;;;;;;0.00;0.00;;;15.00;99.90;;;;;;6217227;23;20012;-70
2022/01/01 12:51:44;;;;;;;;;;;15.00;99.90;;;;;;6215562;23;20104;-69
2022/01/01 12:54:13;;;;;;;0.00;0.00;;;15.00;99.90;;;;;;6213080;23;20209;-69
2022/01/01 12:56:40;;;;;;;0.00;0.00;;;15.00;99.90;;;;;;6216167;23;20007;-70
2022/01/01 12:59:09;;;;;;;0.00;0.00;;;15.00;99.90;;;;;;6219742;23;20004;-70
2022/01/01 13:01:39;;;;;;;0.00;0.00;;;15.00;99.90;;;;;;6217761;23;20028;-70